createdAt,value
2024-04-17T00:00:20.722Z,2.42
2024-04-17T00:02:47.705Z,2.92
2024-04-17T00:05:14.841Z,1.95
2024-04-17T00:07:41.919Z,1.63
2024-04-17T00:10:08.930Z,1.85
2024-04-17T00:12:35.889Z,2.13
2024-04-17T00:15:02.864Z,2.08
2024-04-17T00:17:29.873Z,2.03
2024-04-17T00:19:56.935Z,1.95
2024-04-17T00:22:24.273Z,2.20
2024-04-17T00:24:51.250Z,2.60
2024-04-17T00:27:18.190Z,2.22
2024-04-17T00:29:45.142Z,1.98
2024-04-17T00:32:12.078Z,1.90
2024-04-17T00:34:39.046Z,2.65
2024-04-17T00:37:06.048Z,2.50
2024-04-17T00:39:33.059Z,2.30
2024-04-17T00:42:00.182Z,2.88
2024-04-17T00:46:55.053Z,1.70
2024-04-17T00:49:22.131Z,2.00
2024-04-17T00:51:50.618Z,2.10
2024-04-17T00:54:18.178Z,2.40
2024-04-17T00:59:12.133Z,2.30
2024-04-17T01:01:39.131Z,1.73
2024-04-17T01:04:06.267Z,2.33
2024-04-17T01:06:33.334Z,2.58
2024-04-17T01:09:00.337Z,2.30
2024-04-17T01:11:27.323Z,2.42
2024-04-17T01:13:54.602Z,2.65
2024-04-17T01:16:21.972Z,2.38
2024-04-17T01:18:49.143Z,1.92
2024-04-17T01:21:17.678Z,2.58
2024-04-17T01:23:44.621Z,2.38
2024-04-17T01:26:11.570Z,2.63
2024-04-17T01:28:38.533Z,2.70
2024-04-17T01:31:05.495Z,1.60
2024-04-17T01:33:32.487Z,2.08
2024-04-17T01:35:59.464Z,2.00
2024-04-17T01:38:26.435Z,2.28
2024-04-17T01:40:53.525Z,3.03
2024-04-17T02:18:04.379Z,2.92
2024-04-17T02:22:58.516Z,3.53
2024-04-17T02:25:25.547Z,2.97
2024-04-17T02:27:52.616Z,3.03
2024-04-17T02:30:19.597Z,3.33
2024-04-17T02:32:46.725Z,2.78
2024-04-17T02:35:13.747Z,3.60
2024-04-17T02:37:40.750Z,1.77
2024-04-17T02:40:08.552Z,2.53
2024-04-17T02:42:35.506Z,2.88
2024-04-17T02:45:02.796Z,2.70
2024-04-17T02:47:33.193Z,2.58
2024-04-17T02:50:00.399Z,3.05
2024-04-17T02:52:27.501Z,2.85
2024-04-17T02:54:54.500Z,3.10
2024-04-17T02:57:21.518Z,2.90
2024-04-17T02:59:48.504Z,2.97
2024-04-17T03:02:15.450Z,3.17
2024-04-17T03:04:42.533Z,3.00
2024-04-17T03:07:09.543Z,3.47
2024-04-17T03:09:36.525Z,2.15
2024-04-17T03:12:03.543Z,3.53
2024-04-17T03:14:30.540Z,2.47
2024-04-17T03:16:57.560Z,3.17
2024-04-17T03:19:24.590Z,3.50
2024-04-17T03:21:51.548Z,3.00
2024-04-17T03:24:18.497Z,3.40
2024-04-17T03:26:48.776Z,3.15
2024-04-17T03:29:15.727Z,3.10
2024-04-17T03:31:42.753Z,2.47
2024-04-17T03:34:09.736Z,3.15
2024-04-17T03:36:36.692Z,2.75
2024-04-17T03:39:03.718Z,2.45
2024-04-17T03:41:30.733Z,3.28
2024-04-17T03:43:57.803Z,3.13
2024-04-17T03:46:24.875Z,3.17
2024-04-17T03:48:52.037Z,3.30
2024-04-17T03:51:19.035Z,3.38
2024-04-17T03:53:46.014Z,2.55
2024-04-17T03:56:12.980Z,3.20
2024-04-17T03:58:39.929Z,2.88
2024-04-17T04:01:06.942Z,2.53
2024-04-17T04:03:34.095Z,3.40
2024-04-17T04:06:01.355Z,3.45
2024-04-17T04:08:28.315Z,3.35
2024-04-17T04:10:55.403Z,2.85
2024-04-17T04:13:22.487Z,3.25
2024-04-17T04:15:53.886Z,3.80
2024-04-17T04:18:21.200Z,3.63
2024-04-17T04:20:48.306Z,3.47
2024-04-17T04:23:15.337Z,3.13
2024-04-17T04:25:42.974Z,4.13
2024-04-17T04:28:09.948Z,4.93
2024-04-17T04:30:41.144Z,4.40
2024-04-17T04:33:09.705Z,3.80
2024-04-17T04:35:36.870Z,4.15
2024-04-17T04:38:03.985Z,4.18
2024-04-17T04:40:31.020Z,4.05
2024-04-17T04:42:58.048Z,5.45
2024-04-17T04:45:25.983Z,4.70
2024-04-17T04:47:53.096Z,5.28
2024-04-17T04:50:20.248Z,4.97
2024-04-17T04:52:47.900Z,5.50
2024-04-17T04:55:15.000Z,3.78
2024-04-17T04:57:41.975Z,5.07
2024-04-17T05:00:09.653Z,4.30
2024-04-17T05:02:36.721Z,5.75
2024-04-17T05:05:03.884Z,4.88
2024-04-17T05:07:31.050Z,3.72
2024-04-17T05:09:58.065Z,4.43
2024-04-17T05:12:25.083Z,3.83
2024-04-17T05:14:52.041Z,3.70
2024-04-17T05:17:19.141Z,3.30
2024-04-17T05:19:46.240Z,4.40
2024-04-17T05:22:13.283Z,3.80
2024-04-17T05:24:40.255Z,4.70
2024-04-17T05:27:07.222Z,3.20
2024-04-17T05:29:34.218Z,4.57
2024-04-17T05:32:01.307Z,3.75
2024-04-17T05:34:29.458Z,3.88
2024-04-17T05:36:56.681Z,4.15
2024-04-17T05:39:23.760Z,4.40
2024-04-17T05:41:50.865Z,4.63
2024-04-17T05:44:17.875Z,4.32
2024-04-17T05:46:44.847Z,4.05
2024-04-17T05:49:11.819Z,3.17
2024-04-17T05:51:38.791Z,4.13
2024-04-17T05:54:05.802Z,2.92
2024-04-17T05:56:32.759Z,4.05
2024-04-17T05:59:00.138Z,4.18
2024-04-17T06:01:27.989Z,4.57
2024-04-17T06:03:55.057Z,4.68
2024-04-17T06:06:22.195Z,4.90
2024-04-17T06:08:50.073Z,3.20
2024-04-17T06:11:17.285Z,4.50
2024-04-17T06:13:44.550Z,4.95
2024-04-17T06:16:11.636Z,4.30
2024-04-17T06:18:38.764Z,4.65
2024-04-17T06:21:06.024Z,4.70
2024-04-17T06:23:32.991Z,4.63
2024-04-17T06:26:00.667Z,4.03
2024-04-17T06:28:27.925Z,4.22
2024-04-17T06:30:54.942Z,4.95
2024-04-17T06:33:22.030Z,3.65
2024-04-17T06:35:51.188Z,5.07
2024-04-17T06:38:19.157Z,5.03
2024-04-17T06:40:46.161Z,4.22
2024-04-17T06:43:13.126Z,4.80
2024-04-17T06:45:40.169Z,5.22
2024-04-17T06:48:09.205Z,4.85
2024-04-17T06:50:36.995Z,5.22
2024-04-17T06:53:04.103Z,4.57
2024-04-17T06:55:31.187Z,5.65
2024-04-17T06:57:58.137Z,5.43
2024-04-17T07:00:33.572Z,4.30
2024-04-17T07:03:04.898Z,4.72
2024-04-17T07:05:33.011Z,4.30
2024-04-17T07:08:00.170Z,4.95
2024-04-17T07:10:27.578Z,5.53
2024-04-17T07:12:54.685Z,4.95
2024-04-17T07:15:21.627Z,3.60
2024-04-17T07:17:48.601Z,3.97
2024-04-17T07:20:17.486Z,4.18
2024-04-17T07:22:44.628Z,3.63
2024-04-17T07:25:15.581Z,4.05
2024-04-17T07:27:45.440Z,3.75
2024-04-17T07:30:12.548Z,3.67
2024-04-17T07:32:39.768Z,3.83
2024-04-17T07:35:07.786Z,3.45
2024-04-17T07:37:35.041Z,2.78
2024-04-17T07:40:02.325Z,1.90
2024-04-17T07:42:29.473Z,2.28
2024-04-17T07:44:56.498Z,1.70
2024-04-17T07:47:24.836Z,2.10
2024-04-17T07:49:52.143Z,1.73
2024-04-17T07:52:19.438Z,1.50
2024-04-17T07:54:46.399Z,1.58
2024-04-17T07:57:13.373Z,1.33
2024-04-17T07:59:40.447Z,1.70
2024-04-17T08:02:07.460Z,1.40
2024-04-17T08:04:34.712Z,0.98
2024-04-17T08:07:01.767Z,1.60
2024-04-17T08:09:28.726Z,1.40
2024-04-17T08:11:55.746Z,1.63
2024-04-17T08:14:22.752Z,1.30
2024-04-17T08:16:50.103Z,1.30
2024-04-17T08:21:44.232Z,1.70
2024-04-17T08:24:11.250Z,1.52
2024-04-17T08:26:38.270Z,1.83
2024-04-17T08:29:05.283Z,1.83
2024-04-17T08:31:32.358Z,2.60
2024-04-17T08:33:59.498Z,2.33
2024-04-17T08:36:26.674Z,2.53
2024-04-17T08:38:56.684Z,2.20
2024-04-17T08:41:35.650Z,2.13
2024-04-17T08:44:05.980Z,2.33
2024-04-17T08:46:34.130Z,2.33
2024-04-17T08:49:02.950Z,2.33
2024-04-17T08:51:30.126Z,2.03
2024-04-17T08:54:01.711Z,2.70
2024-04-17T08:56:30.760Z,2.75
2024-04-17T08:58:57.789Z,2.83
2024-04-17T09:01:33.807Z,2.45
2024-04-17T09:04:01.545Z,2.38
2024-04-17T09:06:30.254Z,2.78
2024-04-17T09:08:57.886Z,3.05
2024-04-17T09:11:25.596Z,2.92
2024-04-17T09:13:52.655Z,2.20
2024-04-17T09:16:19.696Z,1.90
2024-04-17T09:18:46.710Z,2.53
2024-04-17T09:21:13.955Z,2.38
2024-04-17T09:23:41.040Z,2.38
2024-04-17T09:26:18.473Z,2.72
2024-04-17T09:28:46.047Z,2.45
2024-04-17T09:31:13.350Z,2.55
2024-04-17T09:33:45.212Z,2.08
2024-04-17T09:36:12.172Z,2.53
2024-04-17T09:38:39.880Z,2.30
2024-04-17T09:41:07.243Z,2.42
2024-04-17T09:43:41.672Z,2.42
2024-04-17T09:46:09.891Z,2.17
2024-04-17T09:48:38.362Z,1.67
2024-04-17T09:51:07.164Z,1.92
2024-04-17T09:53:38.275Z,1.70
2024-04-17T09:56:07.208Z,1.50
2024-04-17T09:58:34.672Z,1.63
2024-04-17T10:01:08.002Z,1.27
2024-04-17T10:03:37.664Z,1.00
2024-04-17T10:06:05.482Z,1.00
2024-04-17T10:08:34.095Z,1.30
2024-04-17T10:11:01.738Z,0.80
2024-04-17T10:13:29.284Z,1.00
2024-04-17T10:18:23.946Z,0.90
2024-04-17T10:20:55.051Z,1.10
2024-04-17T10:23:25.411Z,1.00
2024-04-17T10:25:58.483Z,1.10
2024-04-17T10:28:27.370Z,0.98
2024-04-17T10:30:58.201Z,1.00
2024-04-17T10:33:37.451Z,1.00
2024-04-17T10:36:06.764Z,0.90
2024-04-17T10:38:38.074Z,1.17
2024-04-17T10:41:12.939Z,0.80
2024-04-17T10:43:40.480Z,0.93
2024-04-17T10:46:09.683Z,0.85
2024-04-17T10:48:47.287Z,1.10
2024-04-17T10:51:15.987Z,1.05
2024-04-17T10:53:49.492Z,1.05
2024-04-17T10:56:17.363Z,0.80
2024-04-17T10:58:45.038Z,1.33
2024-04-17T11:01:13.426Z,0.75
2024-04-17T11:03:40.893Z,1.20
2024-04-17T11:08:51.047Z,1.35
2024-04-17T11:11:27.288Z,0.95
2024-04-17T11:13:54.941Z,0.73
2024-04-17T11:16:22.296Z,1.35
2024-04-17T11:18:50.323Z,0.95
2024-04-17T11:21:17.450Z,1.38
2024-04-17T11:23:45.828Z,0.70
2024-04-17T11:26:13.809Z,0.60
2024-04-17T11:28:47.475Z,1.17
2024-04-17T11:31:16.780Z,0.98
2024-04-17T11:33:47.261Z,1.40
2024-04-17T11:36:15.984Z,0.85
2024-04-17T11:38:44.453Z,0.80
2024-04-17T11:41:18.102Z,1.02
2024-04-17T11:43:46.801Z,1.13
2024-04-17T11:46:19.265Z,0.80
2024-04-17T11:48:46.546Z,0.80
2024-04-17T11:51:13.575Z,1.10
2024-04-17T11:53:40.600Z,0.93
2024-04-17T11:56:08.242Z,1.10
2024-04-17T11:58:35.545Z,0.93
2024-04-17T12:01:02.633Z,1.38
2024-04-17T12:03:35.685Z,1.38
2024-04-17T12:06:05.872Z,1.00
2024-04-17T12:08:32.921Z,1.08
2024-04-17T12:11:00.072Z,1.27
2024-04-17T12:13:27.143Z,0.93
2024-04-17T12:15:54.266Z,1.00
2024-04-17T12:18:21.392Z,0.85
2024-04-17T12:20:48.364Z,1.05
2024-04-17T12:23:19.818Z,1.45
2024-04-17T12:26:06.242Z,1.33
2024-04-17T12:28:33.964Z,1.20
2024-04-17T12:31:04.507Z,1.20
2024-04-17T12:33:32.321Z,1.10
2024-04-17T12:35:59.685Z,1.10
2024-04-17T12:38:27.459Z,1.20
2024-04-17T12:40:54.513Z,1.45
2024-04-17T12:43:21.608Z,1.70
2024-04-17T12:45:48.671Z,1.17
2024-04-17T12:48:18.093Z,0.80
2024-04-17T12:50:48.982Z,1.30
2024-04-17T12:53:18.024Z,1.08
2024-04-17T12:55:55.034Z,1.60
2024-04-17T12:58:25.935Z,1.00
2024-04-17T13:00:53.065Z,1.00
2024-04-17T13:03:20.446Z,0.80
2024-04-17T13:05:47.609Z,0.82
2024-04-17T13:08:14.683Z,0.88
2024-04-17T13:10:41.717Z,0.80
2024-04-17T13:13:08.688Z,0.80
2024-04-17T13:15:36.469Z,0.90
2024-04-17T13:18:03.631Z,1.05
2024-04-17T13:20:30.610Z,1.00
2024-04-17T13:23:07.318Z,1.00
2024-04-17T13:25:41.705Z,0.98
2024-04-17T13:28:08.690Z,0.60
2024-04-17T13:30:35.649Z,1.42
2024-04-17T13:33:02.891Z,1.15
2024-04-17T13:35:31.032Z,0.70
2024-04-17T13:37:58.795Z,0.90
2024-04-17T13:40:27.435Z,0.70
2024-04-17T13:42:55.619Z,0.63
2024-04-17T13:45:22.651Z,0.80
2024-04-17T13:47:49.672Z,0.80
2024-04-17T13:50:16.820Z,0.63
2024-04-17T13:52:43.851Z,1.08
2024-04-17T13:55:10.835Z,0.70
2024-04-17T13:57:37.822Z,0.80
2024-04-17T14:00:05.320Z,0.90
2024-04-17T14:02:38.806Z,0.60
2024-04-17T14:05:06.017Z,0.70
2024-04-17T14:07:33.001Z,0.60
2024-04-17T14:10:00.002Z,0.57
2024-04-17T14:12:27.052Z,0.60
2024-04-17T14:14:54.149Z,0.70
2024-04-17T14:17:21.194Z,0.80
2024-04-17T14:19:48.230Z,0.85
2024-04-17T14:22:15.278Z,0.60
2024-04-17T14:24:42.246Z,0.60
2024-04-17T14:27:09.220Z,0.98
2024-04-17T14:29:36.216Z,0.80
2024-04-17T14:32:03.270Z,0.90
2024-04-17T14:34:31.501Z,0.70
2024-04-17T14:36:58.693Z,0.90
2024-04-17T14:39:30.049Z,0.93
2024-04-17T14:41:57.053Z,0.68
2024-04-17T14:44:24.066Z,0.95
2024-04-17T14:46:51.091Z,0.70
2024-04-17T14:49:18.138Z,0.90
2024-04-17T14:51:45.332Z,0.98
2024-04-17T14:54:12.358Z,0.85
2024-04-17T14:56:39.327Z,1.15
2024-04-17T14:59:08.411Z,0.80
2024-04-17T15:01:37.945Z,1.02
2024-04-17T15:04:05.099Z,1.10
2024-04-17T15:06:32.080Z,0.80
2024-04-17T15:08:59.063Z,1.20
2024-04-17T15:11:26.052Z,1.63
2024-04-17T15:13:55.758Z,1.10
2024-04-17T15:16:22.772Z,1.50
2024-04-17T15:18:50.500Z,1.05
2024-04-17T15:21:18.549Z,1.20
2024-04-17T15:23:46.630Z,1.08
2024-04-17T15:26:15.639Z,1.17
2024-04-17T15:28:43.094Z,1.45
2024-04-17T15:31:14.674Z,1.52
2024-04-17T15:33:43.226Z,1.40
2024-04-17T15:36:10.952Z,1.85
2024-04-17T15:38:38.378Z,1.58
2024-04-17T15:43:37.302Z,1.75
2024-04-17T15:46:12.958Z,1.80
2024-04-17T15:48:40.773Z,1.73
2024-04-17T15:51:08.856Z,1.58
2024-04-17T15:53:37.597Z,1.60
2024-04-17T15:56:05.578Z,1.48
2024-04-17T15:58:32.525Z,2.05
2024-04-17T16:01:07.112Z,1.83
2024-04-17T16:03:36.103Z,1.63
2024-04-17T16:06:10.689Z,2.05
2024-04-17T16:08:37.790Z,2.22
2024-04-17T16:11:05.498Z,1.92
2024-04-17T16:13:34.206Z,1.67
2024-04-17T16:16:05.714Z,1.52
2024-04-17T16:18:34.209Z,2.08
2024-04-17T16:21:14.002Z,1.77
2024-04-17T16:23:41.203Z,1.85
2024-04-17T16:26:15.782Z,2.22
2024-04-17T16:28:44.875Z,2.05
2024-04-17T16:31:12.895Z,2.00
2024-04-17T16:33:41.039Z,2.00
2024-04-17T16:36:08.246Z,1.42
2024-04-17T16:38:35.444Z,1.80
2024-04-17T16:41:06.626Z,2.17
2024-04-17T16:43:33.973Z,1.30
2024-04-17T16:46:05.908Z,1.42
2024-04-17T16:48:33.844Z,1.42
2024-04-17T16:51:01.287Z,1.48
2024-04-17T16:53:28.693Z,1.50
2024-04-17T16:58:22.610Z,1.55
2024-04-17T17:00:50.039Z,1.50
2024-04-17T17:03:21.823Z,1.35
2024-04-17T17:05:48.914Z,1.17
2024-04-17T17:08:15.888Z,1.40
2024-04-17T17:10:51.447Z,1.27
2024-04-17T17:13:20.252Z,1.70
2024-04-17T17:15:48.049Z,1.75
2024-04-17T17:18:15.356Z,1.30
2024-04-17T17:20:42.394Z,1.50
2024-04-17T17:23:09.338Z,1.40
2024-04-17T17:25:39.599Z,1.10
2024-04-17T17:28:06.584Z,1.23
2024-04-17T17:30:36.133Z,1.20
2024-04-17T17:33:03.370Z,1.30
2024-04-17T17:35:30.377Z,1.48
2024-04-17T17:37:57.530Z,1.33
2024-04-17T17:40:24.661Z,0.95
2024-04-17T17:45:19.396Z,1.10
2024-04-17T17:47:50.079Z,1.45
2024-04-17T17:50:17.309Z,1.60
2024-04-17T17:52:44.332Z,1.70
2024-04-17T17:55:17.524Z,1.67
2024-04-17T17:57:44.573Z,1.50
2024-04-17T18:00:13.073Z,1.48
2024-04-17T18:02:41.248Z,1.50
2024-04-17T18:05:09.953Z,1.80
2024-04-17T18:07:36.943Z,1.85
2024-04-17T18:10:04.174Z,1.95
2024-04-17T18:12:31.199Z,1.77
2024-04-17T18:14:58.176Z,2.03
2024-04-17T18:17:25.150Z,1.73
2024-04-17T18:19:53.547Z,2.00
2024-04-17T18:22:20.488Z,1.80
2024-04-17T18:24:50.555Z,1.77
2024-04-17T18:27:17.651Z,2.28
2024-04-17T18:29:44.597Z,1.70
2024-04-17T18:32:12.353Z,1.70
2024-04-17T18:34:39.323Z,2.45
2024-04-17T18:37:06.278Z,2.22
2024-04-17T18:39:33.312Z,2.90
2024-04-17T18:42:00.559Z,2.85
2024-04-17T18:44:27.725Z,3.35
2024-04-17T18:46:54.710Z,3.60
2024-04-17T18:49:22.261Z,3.25
2024-04-17T18:51:50.753Z,3.35
2024-04-17T18:54:17.817Z,3.47
2024-04-17T18:56:44.880Z,3.65
2024-04-17T18:59:11.890Z,4.13
2024-04-17T19:01:38.954Z,4.43
2024-04-17T19:04:06.340Z,4.55
2024-04-17T19:09:01.144Z,3.72
2024-04-17T19:11:28.130Z,3.40
2024-04-17T19:13:55.130Z,4.78
2024-04-17T19:16:22.589Z,3.30
2024-04-17T19:21:18.356Z,4.53
2024-04-17T19:23:49.044Z,5.00
2024-04-17T19:26:16.637Z,5.15
2024-04-17T19:28:44.500Z,5.03
2024-04-17T19:31:11.717Z,5.05
2024-04-17T19:33:48.953Z,4.60
2024-04-17T19:36:23.954Z,4.57
2024-04-17T19:39:00.275Z,5.40
2024-04-17T19:41:28.222Z,3.67
2024-04-17T19:43:56.617Z,4.75
2024-04-17T19:46:24.169Z,5.30
2024-04-17T19:48:51.848Z,5.68
2024-04-17T19:51:19.898Z,5.03
2024-04-17T19:53:47.521Z,5.32
2024-04-17T19:58:42.001Z,4.68
2024-04-17T20:03:42.335Z,4.90
2024-04-17T20:06:09.841Z,5.65
2024-04-17T20:11:05.767Z,5.57
2024-04-17T20:13:33.258Z,5.00
2024-04-17T20:16:03.818Z,6.20
2024-04-17T20:18:32.169Z,6.40
2024-04-17T20:21:01.902Z,5.05
2024-04-17T20:23:29.916Z,6.18
2024-04-17T20:26:17.157Z,4.93
2024-04-17T20:28:52.723Z,5.50
2024-04-17T20:31:25.482Z,4.90
2024-04-17T20:33:54.290Z,6.00
2024-04-17T20:36:25.532Z,5.10
2024-04-17T20:38:52.716Z,6.35
2024-04-17T20:41:20.101Z,5.88
2024-04-17T20:46:16.116Z,6.65
2024-04-17T20:48:50.659Z,6.13
2024-04-17T20:51:18.267Z,6.07
2024-04-17T20:53:45.694Z,6.70
2024-04-17T20:56:12.807Z,7.53
2024-04-17T20:58:39.925Z,6.70
2024-04-17T21:01:09.153Z,7.10
2024-04-17T21:03:37.436Z,7.28
2024-04-17T21:06:09.053Z,6.45
2024-04-17T21:08:40.914Z,7.10
2024-04-17T21:11:09.878Z,7.30
2024-04-17T21:13:38.178Z,7.32
2024-04-17T21:16:07.339Z,7.72
2024-04-17T21:18:36.166Z,7.95
2024-04-17T21:21:04.163Z,7.88
2024-04-17T21:23:32.775Z,8.65
2024-04-17T21:26:00.053Z,8.13
2024-04-17T21:28:28.391Z,6.85
2024-04-17T21:30:57.796Z,7.97
2024-04-17T21:33:27.769Z,8.15
2024-04-17T21:35:55.192Z,8.88
2024-04-17T21:38:22.336Z,7.68
2024-04-17T21:40:57.253Z,8.55
2024-04-17T21:43:28.728Z,7.10
2024-04-17T21:45:57.452Z,8.60
2024-04-17T21:48:24.695Z,6.82
2024-04-17T21:50:54.076Z,7.85
2024-04-17T21:53:21.060Z,9.43
2024-04-17T21:55:48.068Z,5.88
2024-04-17T21:58:15.040Z,7.03
2024-04-17T22:00:42.346Z,6.05
2024-04-17T22:03:09.639Z,7.57
2024-04-17T22:05:37.352Z,8.00
2024-04-17T22:08:04.672Z,7.82
2024-04-17T22:10:32.126Z,7.90
2024-04-17T22:15:26.349Z,7.43
2024-04-17T22:17:53.441Z,7.85
2024-04-17T22:20:20.505Z,7.65
2024-04-17T22:22:47.541Z,8.57
2024-04-17T22:25:14.574Z,6.10
2024-04-17T22:27:41.587Z,7.68
2024-04-17T22:30:09.773Z,8.27
2024-04-17T22:32:37.026Z,9.02
2024-04-17T22:35:05.339Z,7.88
2024-04-17T22:37:32.445Z,7.97
2024-04-17T22:40:00.125Z,8.60
2024-04-17T22:42:27.233Z,7.50
2024-04-17T22:44:54.318Z,8.18
2024-04-17T22:47:21.713Z,9.10
2024-04-17T22:52:24.014Z,7.50
2024-04-17T22:54:51.116Z,9.20
2024-04-17T22:57:18.569Z,9.48
2024-04-17T23:02:12.687Z,8.32
2024-04-17T23:04:39.785Z,8.52
2024-04-17T23:07:07.371Z,9.52
2024-04-17T23:12:02.066Z,9.30
2024-04-17T23:14:29.223Z,8.68
2024-04-17T23:16:57.321Z,9.10
2024-04-17T23:19:25.845Z,9.57
2024-04-17T23:21:53.379Z,8.85
2024-04-17T23:24:20.456Z,9.48
2024-04-17T23:26:47.490Z,9.82
2024-04-17T23:29:14.491Z,9.52
2024-04-17T23:31:41.524Z,7.07
2024-04-17T23:34:08.633Z,8.73
2024-04-17T23:36:35.735Z,8.98
2024-04-17T23:39:02.709Z,8.82
2024-04-17T23:41:29.685Z,7.38
2024-04-17T23:43:56.641Z,6.18
2024-04-17T23:46:23.657Z,9.07
2024-04-17T23:48:50.614Z,9.02
2024-04-17T23:51:17.759Z,6.38
2024-04-17T23:53:44.744Z,7.63
2024-04-17T23:56:11.959Z,7.85
2024-04-17T23:58:39.803Z,7.25
